createdAt,value
2023-08-12T00:01:12.698Z,95599.84
2023-08-12T00:03:39.937Z,95599.06
2023-08-12T00:06:07.212Z,95579.56
2023-08-12T00:08:34.422Z,95600.38
2023-08-12T00:11:01.527Z,95600.03
2023-08-12T00:13:28.648Z,95608.22
2023-08-12T00:15:55.807Z,95603.41
2023-08-12T00:18:23.259Z,95611.75
2023-08-12T00:20:50.407Z,95613.19
2023-08-12T00:23:17.494Z,95606.94
2023-08-12T00:25:44.554Z,95616.91
2023-08-12T00:28:11.640Z,95611.97
2023-08-12T00:30:38.718Z,95621.88
2023-08-12T00:33:05.910Z,95623.81
2023-08-12T00:35:33.046Z,95627.66
2023-08-12T00:38:00.155Z,95641.75
2023-08-12T00:40:27.499Z,95640.47
2023-08-12T00:42:54.579Z,95646.53
2023-08-12T00:45:21.877Z,95646.03
2023-08-12T00:47:49.103Z,95648.13
2023-08-12T00:50:16.993Z,95645.72
2023-08-12T00:52:45.099Z,95654.06
2023-08-12T00:55:14.135Z,95656.63
2023-08-12T00:57:41.477Z,95657.75
2023-08-12T01:00:09.162Z,95663.34
2023-08-12T01:02:36.444Z,95644.31
2023-08-12T01:05:05.552Z,95631.81
2023-08-12T01:07:32.656Z,95635.34
2023-08-12T01:09:59.978Z,95636.16
2023-08-12T01:12:30.005Z,95626.38
2023-08-12T01:15:02.777Z,95620.47
2023-08-12T01:17:30.605Z,95632.50
2023-08-12T01:19:57.971Z,95630.09
2023-08-12T01:22:26.948Z,95618.59
2023-08-12T01:24:54.087Z,95607.72
2023-08-12T01:27:21.492Z,95604.50
2023-08-12T01:29:50.562Z,95592.84
2023-08-12T01:32:31.455Z,95593.63
2023-08-12T01:35:01.537Z,95594.28
2023-08-12T01:37:30.044Z,95590.91
2023-08-12T01:39:59.885Z,95572.84
2023-08-12T01:42:27.603Z,95581.97
2023-08-12T01:44:55.198Z,95633.59
2023-08-12T01:47:22.331Z,95649.25
2023-08-12T01:49:49.427Z,95663.66
2023-08-12T01:52:17.041Z,95666.19
2023-08-12T01:54:44.311Z,95680.28
2023-08-12T01:57:12.332Z,95664.63
2023-08-12T01:59:39.803Z,95661.91
2023-08-12T02:02:06.970Z,95653.25
2023-08-12T02:04:34.678Z,95646.53
2023-08-12T02:07:01.769Z,95655.50
2023-08-12T02:09:28.887Z,95669.06
2023-08-12T02:11:55.952Z,95670.84
2023-08-12T02:14:23.187Z,95666.03
2023-08-12T02:16:50.340Z,95677.22
2023-08-12T02:19:17.554Z,95699.25
2023-08-12T02:21:44.677Z,95724.97
2023-08-12T02:24:11.751Z,95778.09
2023-08-12T02:26:39.352Z,95811.63
2023-08-12T02:29:06.572Z,95835.09
2023-08-12T02:31:34.266Z,95856.31
2023-08-12T02:34:01.426Z,95853.66
2023-08-12T02:36:28.611Z,95840.88
2023-08-12T02:38:57.502Z,95829.41
2023-08-12T02:41:24.610Z,95831.31
2023-08-12T02:43:51.798Z,95820.47
2023-08-12T02:46:19.672Z,95817.75
2023-08-12T02:48:48.565Z,95835.84
2023-08-12T02:51:15.770Z,95878.31
2023-08-12T02:53:42.866Z,95890.66
2023-08-12T02:56:10.012Z,95898.78
2023-08-12T02:58:38.666Z,95909.47
2023-08-12T03:01:05.921Z,95911.38
2023-08-12T03:03:33.239Z,95920.00
2023-08-12T03:06:00.675Z,95930.06
2023-08-12T03:08:29.406Z,95942.53
2023-08-12T03:11:00.816Z,95951.34
2023-08-12T03:13:28.263Z,95950.53
2023-08-12T03:15:56.133Z,95954.38
2023-08-12T03:18:23.446Z,95946.66
2023-08-12T03:20:50.841Z,95976.97
2023-08-12T03:23:18.569Z,96013.78
2023-08-12T03:25:47.874Z,96052.56
2023-08-12T03:28:15.204Z,96082.28
2023-08-12T03:30:42.315Z,96100.69
2023-08-12T03:33:09.530Z,96109.34
2023-08-12T03:35:38.374Z,96115.50
2023-08-12T03:38:05.524Z,96136.69
2023-08-12T03:40:33.277Z,96169.53
2023-08-12T03:43:01.394Z,96211.16
2023-08-12T03:45:28.505Z,96244.56
2023-08-12T03:47:55.760Z,96275.34
2023-08-12T03:50:23.066Z,96291.53
2023-08-12T03:52:50.194Z,96296.59
2023-08-12T03:55:17.427Z,96287.66
2023-08-12T03:57:44.496Z,96301.22
2023-08-12T04:00:12.624Z,96289.34
2023-08-12T04:02:42.845Z,96297.69
2023-08-12T04:05:10.584Z,96289.94
2023-08-12T04:07:37.948Z,96298.88
2023-08-12T04:10:05.461Z,96322.13
2023-08-12T04:12:32.585Z,96359.97
2023-08-12T04:15:00.987Z,96369.91
2023-08-12T04:17:28.204Z,96371.34
2023-08-12T04:19:55.346Z,96397.44
2023-08-12T04:22:22.477Z,96405.47
2023-08-12T04:24:50.060Z,96413.63
2023-08-12T04:27:20.298Z,96416.94
2023-08-12T04:29:48.034Z,96433.44
2023-08-12T04:32:15.322Z,96449.50
2023-08-12T04:34:42.545Z,96471.78
2023-08-12T04:37:10.117Z,96497.75
2023-08-12T04:39:37.551Z,96517.03
2023-08-12T04:42:04.866Z,96541.50
2023-08-12T04:44:32.588Z,96589.69
2023-08-12T04:46:59.696Z,96641.50
2023-08-12T04:49:27.056Z,96681.22
2023-08-12T04:51:54.164Z,96706.09
2023-08-12T04:54:21.940Z,96759.75
2023-08-12T04:56:49.830Z,96716.66
2023-08-12T04:59:17.000Z,96599.25
2023-08-12T05:01:58.510Z,96340.94
2023-08-12T05:04:30.010Z,95998.47
2023-08-12T05:06:57.646Z,95616.88
2023-08-12T05:09:25.675Z,95358.09
2023-08-12T05:11:52.803Z,95177.59
2023-08-12T05:14:19.917Z,95140.31
2023-08-12T05:16:47.740Z,95125.16
2023-08-12T05:19:14.860Z,95164.19
2023-08-12T05:21:41.978Z,95256.34
2023-08-12T05:24:09.274Z,95352.00
2023-08-12T05:26:36.405Z,95415.19
2023-08-12T05:29:03.574Z,95500.25
2023-08-12T05:31:30.946Z,95540.66
2023-08-12T05:33:58.160Z,95556.19
2023-08-12T05:36:25.375Z,95557.66
2023-08-12T05:38:52.449Z,95552.59
2023-08-12T05:41:19.556Z,95534.13
2023-08-12T05:43:46.671Z,95456.78
2023-08-12T05:46:13.798Z,95393.78
2023-08-12T05:48:41.163Z,95349.22
2023-08-12T05:51:08.238Z,95315.81
2023-08-12T05:53:35.421Z,95303.09
2023-08-12T05:56:02.656Z,95295.97
2023-08-12T05:58:29.786Z,95241.09
2023-08-12T06:00:56.919Z,95207.38
2023-08-12T06:03:24.112Z,95223.03
2023-08-12T06:05:51.254Z,95199.03
2023-08-12T06:08:18.588Z,95183.63
2023-08-12T06:10:45.683Z,95174.56
2023-08-12T06:13:12.729Z,95159.53
2023-08-12T06:15:40.269Z,95180.22
2023-08-12T06:18:07.383Z,95197.91
2023-08-12T06:20:34.583Z,95222.72
2023-08-12T06:23:01.781Z,95214.72
2023-08-12T06:25:28.930Z,95260.06
2023-08-12T06:27:56.318Z,95289.69
2023-08-12T06:30:23.688Z,95272.44
2023-08-12T06:32:51.035Z,95248.91
2023-08-12T06:35:18.229Z,95219.78
2023-08-12T06:37:45.318Z,95225.41
2023-08-12T06:40:12.450Z,95242.78
2023-08-12T06:42:39.682Z,95242.44
2023-08-12T06:45:07.109Z,95262.47
2023-08-12T06:47:34.175Z,95267.50
2023-08-12T06:50:01.295Z,95274.28
2023-08-12T06:52:28.427Z,95280.13
2023-08-12T06:54:55.574Z,95282.06
2023-08-12T06:57:22.652Z,95269.94
2023-08-12T06:59:49.945Z,95274.72
2023-08-12T07:02:17.773Z,95295.16
2023-08-12T07:04:44.896Z,95314.78
2023-08-12T07:07:11.960Z,95332.53
2023-08-12T07:09:39.254Z,95354.09
2023-08-12T07:12:06.694Z,95374.38
2023-08-12T07:14:33.758Z,95403.97
2023-08-12T07:17:00.813Z,95415.53
2023-08-12T07:19:27.883Z,95435.31
2023-08-12T07:21:54.969Z,95452.19
2023-08-12T07:24:22.048Z,95486.38
2023-08-12T07:26:49.151Z,95511.56
2023-08-12T07:29:16.240Z,95503.63
2023-08-12T07:31:43.306Z,95477.91
2023-08-12T07:34:14.020Z,95484.38
2023-08-12T07:36:41.568Z,95491.28
2023-08-12T07:39:08.661Z,95516.91
2023-08-12T07:41:35.771Z,95546.13
2023-08-12T07:44:02.919Z,95531.09
2023-08-12T07:46:31.022Z,95514.81
2023-08-12T07:48:58.292Z,95547.38
2023-08-12T07:51:25.361Z,95552.56
2023-08-12T07:53:52.505Z,95536.78
2023-08-12T07:56:19.616Z,95520.75
2023-08-12T07:58:47.078Z,95514.75
2023-08-12T08:01:14.854Z,95512.44
2023-08-12T08:03:41.982Z,95506.31
2023-08-12T08:06:10.813Z,95534.41
2023-08-12T08:08:37.985Z,95558.16
2023-08-12T08:11:05.063Z,95542.63
2023-08-12T08:13:32.155Z,95561.22
2023-08-12T08:15:59.291Z,95590.28
2023-08-12T08:18:26.549Z,95575.66
2023-08-12T08:20:53.741Z,95567.06
2023-08-12T08:23:20.884Z,95563.81
2023-08-12T08:25:48.052Z,95570.53
2023-08-12T08:28:15.088Z,95566.34
2023-08-12T08:30:42.399Z,95573.69
2023-08-12T08:33:09.622Z,95569.47
2023-08-12T08:35:36.859Z,95567.19
2023-08-12T08:38:04.098Z,95550.94
2023-08-12T08:40:31.173Z,95547.84
2023-08-12T08:43:00.026Z,95546.63
2023-08-12T08:45:27.659Z,95544.28
2023-08-12T08:47:55.067Z,95540.84
2023-08-12T08:50:22.567Z,95525.91
2023-08-12T08:52:51.090Z,95535.72
2023-08-12T08:55:19.905Z,95574.66
2023-08-12T08:57:49.822Z,95566.81
2023-08-12T09:00:18.620Z,95559.38
2023-08-12T09:02:50.488Z,95546.75
2023-08-12T09:05:18.298Z,95553.97
2023-08-12T09:07:45.975Z,95560.44
2023-08-12T09:10:15.646Z,95562.81
2023-08-12T09:12:43.378Z,95559.44
2023-08-12T09:15:10.808Z,95575.44
2023-08-12T09:17:38.272Z,95580.47
2023-08-12T09:20:12.296Z,95572.25
2023-08-12T09:22:40.740Z,95588.28
2023-08-12T09:25:09.398Z,95587.38
2023-08-12T09:27:37.142Z,95587.00
2023-08-12T09:30:04.601Z,95582.97
2023-08-12T09:32:31.878Z,95573.47
2023-08-12T09:34:58.951Z,95577.22
2023-08-12T09:37:26.130Z,95556.72
2023-08-12T09:39:53.426Z,95554.63
2023-08-12T09:42:20.479Z,95538.81
2023-08-12T09:44:47.710Z,95513.75
2023-08-12T09:47:15.485Z,95519.56
2023-08-12T09:49:42.685Z,95529.31
2023-08-12T09:52:10.260Z,95519.22
2023-08-12T09:54:37.813Z,95564.50
2023-08-12T09:57:07.514Z,95555.69
2023-08-12T09:59:39.073Z,95534.50
2023-08-12T10:02:08.378Z,95502.13
2023-08-12T10:04:41.044Z,95479.81
2023-08-12T10:07:09.028Z,95471.94
2023-08-12T10:09:39.130Z,95482.56
2023-08-12T10:12:07.671Z,95494.59
2023-08-12T10:14:34.928Z,95486.66
2023-08-12T10:17:06.071Z,95517.00
2023-08-12T10:19:34.961Z,95503.47
2023-08-12T10:22:03.701Z,95491.19
2023-08-12T10:24:30.924Z,95490.78
2023-08-12T10:26:58.079Z,95478.50
2023-08-12T10:29:25.818Z,95462.03
2023-08-12T10:31:53.099Z,95438.72
2023-08-12T10:34:23.944Z,95439.66
2023-08-12T10:37:03.003Z,95431.47
2023-08-12T10:39:33.890Z,95404.78
2023-08-12T10:42:01.049Z,95365.97
2023-08-12T10:44:41.852Z,95358.88
2023-08-12T10:47:10.472Z,95350.75
2023-08-12T10:49:43.744Z,95344.06
2023-08-12T10:52:26.923Z,95300.25
2023-08-12T10:54:54.125Z,95293.28
2023-08-12T10:57:35.534Z,95282.41
2023-08-12T11:00:04.476Z,95266.75
2023-08-12T11:02:35.684Z,95249.09
2023-08-12T11:05:10.189Z,95241.66
2023-08-12T11:07:41.702Z,95228.31
2023-08-12T11:10:13.040Z,95218.44
2023-08-12T11:12:41.031Z,95195.19
2023-08-12T11:15:08.361Z,95187.28
2023-08-12T11:17:35.803Z,95179.00
2023-08-12T11:20:05.383Z,95175.44
2023-08-12T11:22:33.391Z,95174.31
2023-08-12T11:25:00.978Z,95162.06
2023-08-12T11:27:28.069Z,95160.47
2023-08-12T11:29:55.126Z,95169.13
2023-08-12T11:32:22.207Z,95160.06
2023-08-12T11:34:49.590Z,95154.56
2023-08-12T11:37:16.802Z,95135.19
2023-08-12T11:39:43.945Z,95132.47
2023-08-12T11:42:11.163Z,95119.41
2023-08-12T11:44:40.822Z,95111.84
2023-08-12T11:47:07.907Z,95102.78
2023-08-12T11:49:34.983Z,95083.34
2023-08-12T11:52:02.184Z,95071.91
2023-08-12T11:54:30.203Z,95068.72
2023-08-12T11:56:58.200Z,95058.34
2023-08-12T11:59:25.583Z,95057.13
2023-08-12T12:01:52.715Z,95057.22
2023-08-12T12:04:21.853Z,95048.13
2023-08-12T12:06:49.279Z,95034.47
2023-08-12T12:09:19.178Z,95033.69
2023-08-12T12:11:46.308Z,95039.31
2023-08-12T12:14:13.408Z,95038.91
2023-08-12T12:16:41.712Z,95023.34
2023-08-12T12:19:16.809Z,95039.19
2023-08-12T12:21:45.854Z,95031.91
2023-08-12T12:24:12.957Z,95035.06
2023-08-12T12:26:40.062Z,95046.13
2023-08-12T12:29:07.179Z,95043.44
2023-08-12T12:31:35.305Z,95031.09
2023-08-12T12:34:05.805Z,95038.38
2023-08-12T12:36:33.238Z,95019.34
2023-08-12T12:39:00.536Z,95018.38
2023-08-12T12:41:27.616Z,95006.53
2023-08-12T12:43:54.778Z,95004.81
2023-08-12T12:46:22.128Z,95017.44
2023-08-12T12:48:49.383Z,95044.00
2023-08-12T12:51:16.552Z,95056.25
2023-08-12T12:53:43.783Z,95044.03
2023-08-12T12:56:10.868Z,95050.47
2023-08-12T12:58:38.379Z,95067.13
2023-08-12T13:01:05.816Z,95051.31
2023-08-12T13:03:33.043Z,95063.09
2023-08-12T13:06:00.397Z,95080.75
2023-08-12T13:08:27.492Z,95084.53
2023-08-12T13:10:54.640Z,95063.63
2023-08-12T13:13:21.714Z,95074.31
2023-08-12T13:15:48.838Z,95077.19
2023-08-12T13:18:15.999Z,95082.22
2023-08-12T13:20:43.147Z,95068.91
2023-08-12T13:23:10.167Z,95040.81
2023-08-12T13:25:37.320Z,95055.75
2023-08-12T13:28:04.708Z,95051.47
2023-08-12T13:30:31.855Z,95038.72
2023-08-12T13:33:01.317Z,95024.78
2023-08-12T13:35:29.113Z,95018.88
2023-08-12T13:37:56.326Z,95031.25
2023-08-12T13:40:23.562Z,95035.09
2023-08-12T13:42:51.796Z,95034.63
2023-08-12T13:45:18.942Z,95016.47
2023-08-12T13:47:46.215Z,94993.56
2023-08-12T13:50:14.390Z,95012.50
2023-08-12T13:52:41.612Z,95011.00
2023-08-12T13:55:08.764Z,95003.31
2023-08-12T13:57:36.153Z,95013.84
2023-08-12T14:00:05.545Z,95010.44
2023-08-12T14:02:40.053Z,95007.91
2023-08-12T14:05:07.730Z,95003.41
2023-08-12T14:07:34.866Z,94986.53
2023-08-12T14:10:01.984Z,94976.38
2023-08-12T14:12:29.111Z,94972.75
2023-08-12T14:14:56.180Z,94961.06
2023-08-12T14:17:24.396Z,94961.75
2023-08-12T14:20:00.810Z,94983.53
2023-08-12T14:22:28.128Z,94977.84
2023-08-12T14:27:27.143Z,94979.00
2023-08-12T14:29:54.185Z,94988.78
2023-08-12T14:32:21.255Z,94994.94
2023-08-12T14:34:48.704Z,95005.03
2023-08-12T14:37:16.290Z,95003.41
2023-08-12T14:39:43.598Z,95003.94
2023-08-12T14:42:11.472Z,95015.59
2023-08-12T14:44:38.605Z,95038.59
2023-08-12T14:47:06.133Z,95035.19
2023-08-12T14:49:33.232Z,95048.34
2023-08-12T14:52:00.404Z,95050.59
2023-08-12T14:54:27.474Z,95060.19
2023-08-12T14:56:54.523Z,95064.59
2023-08-12T14:59:21.623Z,95070.53
2023-08-12T15:01:48.686Z,95141.56
2023-08-12T15:04:15.896Z,95171.50
2023-08-12T15:06:43.037Z,95157.38
2023-08-12T15:09:10.530Z,95182.28
2023-08-12T15:11:37.689Z,95227.31
2023-08-12T15:14:04.913Z,95307.56
2023-08-12T15:16:32.971Z,95390.13
2023-08-12T15:19:00.118Z,95461.75
2023-08-12T15:21:27.188Z,95517.66
2023-08-12T15:23:54.367Z,95570.47
2023-08-12T15:26:21.545Z,95617.78
2023-08-12T15:28:48.607Z,95680.72
2023-08-12T15:31:16.007Z,95716.72
2023-08-12T15:33:43.368Z,95770.59
2023-08-12T15:36:10.440Z,95838.47
2023-08-12T15:38:38.390Z,95888.03
2023-08-12T15:41:16.533Z,95854.75
2023-08-12T15:43:43.644Z,95712.94
2023-08-12T15:46:10.808Z,95597.97
2023-08-12T15:48:38.042Z,95532.75
2023-08-12T15:51:05.101Z,95496.31
2023-08-12T15:53:32.237Z,95411.84
2023-08-12T15:55:59.290Z,95383.38
2023-08-12T15:58:26.490Z,95433.00
2023-08-12T16:00:53.546Z,95431.97
2023-08-12T16:03:21.176Z,95411.97
2023-08-12T16:05:49.808Z,95412.97
2023-08-12T16:08:17.648Z,95457.28
2023-08-12T16:10:44.756Z,95470.41
2023-08-12T16:13:11.870Z,95500.97
2023-08-12T16:15:39.046Z,95497.09
2023-08-12T16:18:06.282Z,95478.19
2023-08-12T16:20:33.367Z,95485.13
2023-08-12T16:23:00.477Z,95526.53
2023-08-12T16:25:27.576Z,95625.13
2023-08-12T16:27:54.669Z,95713.31
2023-08-12T16:30:21.744Z,95734.69
2023-08-12T16:32:48.896Z,95776.81
2023-08-12T16:35:15.992Z,95784.97
2023-08-12T16:37:43.047Z,95866.75
2023-08-12T16:40:11.113Z,95876.28
2023-08-12T16:42:38.231Z,95874.56
2023-08-12T16:45:05.885Z,95962.09
2023-08-12T16:47:33.181Z,96043.44
2023-08-12T16:50:00.470Z,96087.97
2023-08-12T16:52:27.634Z,96122.81
2023-08-12T16:54:54.803Z,96145.16
2023-08-12T16:57:21.913Z,96167.44
2023-08-12T16:59:49.123Z,96209.09
2023-08-12T17:02:16.455Z,96239.59
2023-08-12T17:04:43.952Z,96304.25
2023-08-12T17:07:11.110Z,96315.03
2023-08-12T17:09:38.181Z,96353.34
2023-08-12T17:12:05.823Z,96388.81
2023-08-12T17:14:32.930Z,96449.00
2023-08-12T17:17:00.281Z,96480.56
2023-08-12T17:19:27.409Z,96543.22
2023-08-12T17:21:54.565Z,96633.13
2023-08-12T17:24:21.660Z,96717.50
2023-08-12T17:26:48.820Z,96845.44
2023-08-12T17:29:15.974Z,96942.28
2023-08-12T17:31:43.093Z,96996.75
2023-08-12T17:34:10.177Z,97040.00
2023-08-12T17:36:37.275Z,97071.41
2023-08-12T17:39:05.698Z,97086.88
2023-08-12T17:41:32.791Z,97120.28
2023-08-12T17:43:59.873Z,97147.69
2023-08-12T17:46:27.004Z,97173.56
2023-08-12T17:48:54.192Z,97205.97
2023-08-12T17:51:21.278Z,97256.16
2023-08-12T17:53:48.540Z,97311.41
2023-08-12T17:56:16.649Z,97371.53
2023-08-12T17:58:44.653Z,97438.06
2023-08-12T18:01:12.651Z,97474.38
2023-08-12T18:03:40.113Z,97497.91
2023-08-12T18:06:07.365Z,97527.81
2023-08-12T18:08:34.565Z,97565.06
2023-08-12T18:11:02.809Z,97593.84
2023-08-12T18:13:30.336Z,97633.94
2023-08-12T18:15:57.897Z,97676.47
2023-08-12T18:18:25.212Z,97736.88
2023-08-12T18:20:52.288Z,97773.09
2023-08-12T18:23:19.413Z,97813.03
2023-08-12T18:25:46.501Z,97840.41
2023-08-12T18:28:13.593Z,97883.19
2023-08-12T18:30:40.682Z,97942.94
2023-08-12T18:33:07.909Z,98002.72
2023-08-12T18:35:35.141Z,98084.97
2023-08-12T18:38:02.464Z,98164.59
2023-08-12T18:40:31.622Z,98223.41
2023-08-12T18:43:00.228Z,98275.94
2023-08-12T18:45:29.497Z,98317.00
2023-08-12T18:47:56.684Z,98359.72
2023-08-12T18:50:24.395Z,98409.53
2023-08-12T18:52:51.686Z,98452.88
2023-08-12T18:55:19.496Z,98520.72
2023-08-12T18:57:46.697Z,98625.50
2023-08-12T19:00:14.962Z,98763.88
2023-08-12T19:02:42.421Z,98894.88
2023-08-12T19:05:09.676Z,99008.88
2023-08-12T19:07:36.768Z,99097.28
2023-08-12T19:10:03.979Z,99207.00
2023-08-12T19:12:31.395Z,99311.09
2023-08-12T19:14:58.488Z,99349.00
2023-08-12T19:17:25.634Z,99373.09
2023-08-12T19:19:52.691Z,99395.25
2023-08-12T19:22:20.414Z,99408.53
2023-08-12T19:24:47.503Z,99443.59
2023-08-12T19:27:14.585Z,99461.34
2023-08-12T19:29:41.783Z,99469.22
2023-08-12T19:32:09.373Z,99485.81
2023-08-12T19:34:36.434Z,99536.28
2023-08-12T19:37:03.981Z,99570.53
2023-08-12T19:39:31.301Z,99599.25
2023-08-12T19:41:58.721Z,99618.16
2023-08-12T19:44:25.959Z,99656.16
2023-08-12T19:46:53.078Z,99751.19
2023-08-12T19:49:20.272Z,99763.56
2023-08-12T19:51:47.334Z,99788.78
2023-08-12T19:54:14.411Z,99794.84
2023-08-12T19:56:41.504Z,99812.56
2023-08-12T19:59:08.588Z,99847.03
2023-08-12T20:01:36.022Z,99876.28
2023-08-12T20:04:03.935Z,99916.59
2023-08-12T20:06:31.464Z,99943.94
2023-08-12T20:08:59.127Z,99959.28
2023-08-12T20:11:26.250Z,99957.47
2023-08-12T20:13:53.725Z,99970.56
2023-08-12T20:16:21.515Z,99984.69
2023-08-12T20:18:49.922Z,100013.69
2023-08-12T20:21:17.029Z,100023.41
2023-08-12T20:23:44.164Z,100065.47
2023-08-12T20:26:11.305Z,100083.00
2023-08-12T20:28:38.758Z,100082.72
2023-08-12T20:31:05.826Z,100104.72
2023-08-12T20:33:33.072Z,100112.78
2023-08-12T20:36:00.270Z,100129.84
2023-08-12T20:38:27.625Z,100156.72
2023-08-12T20:40:54.694Z,100171.69
2023-08-12T20:43:21.757Z,100199.31
2023-08-12T20:45:48.859Z,100224.50
2023-08-12T20:48:16.966Z,100241.97
2023-08-12T20:50:44.231Z,100253.19
2023-08-12T20:53:11.419Z,100257.44
2023-08-12T20:55:38.538Z,100266.69
2023-08-12T20:58:06.482Z,100282.88
2023-08-12T21:00:33.727Z,100298.06
2023-08-12T21:03:00.837Z,100320.75
2023-08-12T21:05:27.920Z,100353.16
2023-08-12T21:07:54.994Z,100375.34
2023-08-12T21:10:22.088Z,100413.38
2023-08-12T21:12:49.156Z,100440.53
2023-08-12T21:15:16.269Z,100481.47
2023-08-12T21:17:43.477Z,100514.25
2023-08-12T21:20:10.920Z,100551.41
2023-08-12T21:22:38.042Z,100593.34
2023-08-12T21:25:05.559Z,100595.03
2023-08-12T21:27:32.803Z,100567.59
2023-08-12T21:29:59.958Z,100587.53
2023-08-12T21:32:27.096Z,100576.84
2023-08-12T21:34:54.185Z,100589.63
2023-08-12T21:37:21.260Z,100609.19
2023-08-12T21:39:48.358Z,100643.19
2023-08-12T21:42:15.566Z,100676.97
2023-08-12T21:44:42.918Z,100709.53
2023-08-12T21:47:10.551Z,100748.34
2023-08-12T21:49:37.687Z,100754.63
2023-08-12T21:52:04.877Z,100789.25
2023-08-12T21:54:32.029Z,100808.75
2023-08-12T21:56:59.238Z,100842.91
2023-08-12T21:59:26.300Z,100888.66
2023-08-12T22:01:53.550Z,100920.78
2023-08-12T22:04:20.749Z,100938.63
2023-08-12T22:06:47.863Z,100952.28
2023-08-12T22:09:14.914Z,100960.19
2023-08-12T22:11:42.217Z,100977.84
2023-08-12T22:14:09.304Z,100964.00
2023-08-12T22:16:36.371Z,100997.75
2023-08-12T22:19:03.746Z,101039.09
2023-08-12T22:21:30.853Z,101065.94
2023-08-12T22:23:57.914Z,101105.41
2023-08-12T22:26:24.975Z,101129.81
2023-08-12T22:28:52.075Z,101132.53
2023-08-12T22:31:19.144Z,101128.25
2023-08-12T22:33:46.284Z,101140.88
2023-08-12T22:36:13.385Z,101163.09
2023-08-12T22:38:40.511Z,101188.47
2023-08-12T22:41:07.605Z,101193.84
2023-08-12T22:43:34.705Z,101211.28
2023-08-12T22:46:01.857Z,101239.47
2023-08-12T22:48:28.997Z,101258.16
2023-08-12T22:50:56.082Z,101257.50
2023-08-12T22:53:23.212Z,101254.53
2023-08-12T22:55:50.329Z,101260.38
2023-08-12T22:58:17.411Z,101258.16
2023-08-12T23:00:44.597Z,101302.25
2023-08-12T23:03:11.793Z,101319.91
2023-08-12T23:05:38.955Z,101325.38
2023-08-12T23:08:06.185Z,101336.38
2023-08-12T23:10:33.311Z,101338.66
2023-08-12T23:13:00.500Z,101363.94
2023-08-12T23:15:27.615Z,101406.25
2023-08-12T23:17:54.737Z,101438.59
2023-08-12T23:20:21.891Z,101455.25
2023-08-12T23:22:49.003Z,101468.13
2023-08-12T23:25:16.390Z,101530.63
2023-08-12T23:27:43.466Z,101555.47
2023-08-12T23:30:15.010Z,101558.84
2023-08-12T23:32:44.470Z,101573.81
2023-08-12T23:35:18.851Z,101571.47
2023-08-12T23:37:46.639Z,101567.72
2023-08-12T23:40:14.045Z,101569.75
2023-08-12T23:42:41.875Z,101578.31
2023-08-12T23:45:10.155Z,101601.34
2023-08-12T23:47:39.657Z,101628.41
2023-08-12T23:50:07.090Z,101674.47
2023-08-12T23:52:34.175Z,101714.81
2023-08-12T23:55:01.263Z,101718.72
2023-08-12T23:57:28.395Z,101730.25
2023-08-12T23:59:55.479Z,101737.63
